Metar Cercanos

 

LEPA - Palma De Mallorc, Spain
Distance from station: ONO 38km
Actualización: Sun, 05-Feb-2023 12:00pm CET
Few Clouds
Few Clouds
 Viento del NE
Viento: NE 28 km/h
Temperatura: 16°C
Rocío: 6°C
Humedad: 52%
Barómetro: 1031 hPa
Clouds: Few Clouds
Visibility: 10 km
Cloud details: Few Clouds 671 m
2023/02/05 11:00 LEPA 051100Z 04015KT 9999 FEW022 16/06 Q1031 NOSIG
LEMH - Mahon/Menorca Is, Spain
Distance from station: ENE 105km
Actualización: Sun, 05-Feb-2023 12:00pm CET
Muy nuboso
Muy nuboso
 Viento del N
Viento: N 43 km/h, Racha: 61 km/h
Temperatura: 13°C
Rocío: 8°C
Humedad: 72%
Barómetro: 1030 hPa
Clouds: Muy nuboso
Visibility: 10 km
Cloud details: Few Clouds 488 m
Muy nuboso 732 m
2023/02/05 11:00 LEMH 051100Z 01023G33KT 9999 FEW016 BKN024 13/08 Q1030
 
LEIB - Ibiza/Es Codola, Spain
Distance from station: OSO 165km
Actualización: Sun, 05-Feb-2023 12:00pm CET
Few Clouds
Few Clouds
 Viento del S
Viento: S 9 km/h
Temperatura: 16°C
Rocío: 8°C
Humedad: 59%
Barómetro: 1032 hPa
Clouds: Few Clouds
Visibility: 10 km
Cloud details: Few Clouds 549 m
2023/02/05 11:00 LEIB 051100Z 18005KT 150V230 9999 FEW018 16/08 Q1032 NOSIG
LEBL - Barcelona Airpor, Spain
Distance from station: NNO 225km
Actualización: Sun, 05-Feb-2023 12:00pm CET
Despejado
Despejado
 Viento del NO
Viento: NO 24 km/h
Temperatura: 12°C
Rocío: 0°C
Humedad: 44%
Barómetro: 1032 hPa
Resumen: Despejado
Visibility: greater than 10 km
2023/02/05 11:00 LEBL 051100Z 32013KT 290V350 CAVOK 12/00 Q1032 NOSIG
 
LEVC - Valencia (civ/Mi, Spain
Distance from station: NO 188km
Actualización: Sun, 05-Feb-2023 12:00pm CET
Despejado
Despejado
 Viento del ESE
Viento: ESE 7 km/h
Temperatura: 15°C
Rocío: 5°C
Humedad: 51%
Barómetro: 1033 hPa
Resumen: Despejado
Visibility: greater than 10 km
2023/02/05 11:00 LEVC 051100Z 12004KT CAVOK 15/05 Q1033 NOSIG
LEGE - Gerona/Costa Bra, Spain
Distance from station: N 276km
Actualización: Sun, 05-Feb-2023 11:30am CET
Despejado
Despejado
 Viento del calm
Viento: Calma
Temperatura: 14°C
Rocío: -1°C
Humedad: 36%
Barómetro: 1032 hPa
Resumen: Despejado
Visibility: greater than 10 km
2023/02/05 10:30 LEGE 051030Z 00000KT CAVOK 14/M01 Q1032
 
LEAL - Alicante/El Alte, Spain
Distance from station: OSO 344km
Actualización: Sun, 05-Feb-2023 12:00pm CET
Few Clouds
Few Clouds
 Viento del ENE
Viento: ENE 24 km/h
Temperatura: 16°C
Rocío: 9°C
Humedad: 63%
Barómetro: 1032 hPa
Clouds: Few Clouds
Visibility: 10 km
Cloud details: Few Clouds 1219 m
2023/02/05 11:00 LEAL 051100Z 07013KT 9999 FEW040 16/09 Q1032 NOSIG
LEAM - Almeria Airport, Spain
Distance from station: SSO 56km
Actualización: Sun, 05-Feb-2023 12:00pm CET
Despejado
Despejado
 Viento del S
Viento: S 6 km/h
Temperatura: 15°C
Rocío: 7°C
Humedad: 59%
Barómetro: 1031 hPa
Resumen: Despejado
Visibility: greater than 10 km
2023/02/05 11:00 LEAM 051100Z 18003KT 110V230 CAVOK 15/07 Q1031
 
LEZG - Zaragoza (mil/Ci, Spain
Distance from station: NO 431km
Actualización: Sun, 05-Feb-2023 12:00pm CET
Despejado
Despejado
 Viento del NO
Viento: NO 44 km/h
Temperatura: 11°C
Rocío: 3°C
Humedad: 58%
Barómetro: 1035 hPa
Resumen: Despejado
Visibility: greater than 10 km
2023/02/05 11:00 LEZG 051100Z 31024KT CAVOK 11/03 Q1035
LEMD - Madrid/Barajas, Spain
Distance from station: ONO 234km
Actualización: Sun, 05-Feb-2023 12:00pm CET
Despejado
Despejado
 Viento del ENE
Viento: ENE 7 km/h
Temperatura: 13°C
Rocío: -5°C
Humedad: 28%
Barómetro: 1032 hPa
Resumen: Despejado
Visibility: greater than 10 km
2023/02/05 11:00 LEMD 051100Z 06004KT 350V110 CAVOK 13/M05 Q1032 NOSIG
 
LEGR - Granada Airport, Spain
Distance from station: OSO 62km
Actualización: Sun, 05-Feb-2023 12:00pm CET
Despejado
Despejado
 Viento del calm
Viento: Calma
Temperatura: 10°C
Rocío: -3°C
Humedad: 40%
Barómetro: 1030 hPa
Resumen: Despejado
Visibility: greater than 10 km
2023/02/05 11:00 LEGR 051100Z 00000KT CAVOK 10/M03 Q1030
LEMG - Malaga (civ/Mil), Spain
Distance from station: OSO 227km
Actualización: Sun, 05-Feb-2023 12:00pm CET
Despejado
Despejado
 Viento del NO
Viento: NO 6 km/h
Temperatura: 14°C
Rocío: 5°C
Humedad: 55%
Barómetro: 1030 hPa
Resumen: Despejado
Visibility: greater than 10 km
2023/02/05 11:00 LEMG 051100Z 31003KT 270V360 CAVOK 14/05 Q1030 BECMG 12008KT
 
LEZL - Sevilla (civ/Mil, Spain
Distance from station: S 318km
Actualización: Sun, 05-Feb-2023 12:00pm CET
Despejado
Despejado
 Viento del NE
Viento: NE 17 km/h
Temperatura: 14°C
Rocío: 1°C
Humedad: 41%
Barómetro: 1029 hPa
Resumen: Despejado
Visibility: greater than 10 km
2023/02/05 11:00 LEZL 051100Z 05009KT CAVOK 14/01 Q1029 NOSIG
LEVT - Vitoria, Spain
Distance from station: NO 226km
Actualización: Sun, 05-Feb-2023 12:00pm CET
Cubierto
Cubierto
 Viento del NNE
Viento: NNE 15 km/h
Temperatura: 6°C
Sensación frio: 3°C
Rocío: 3°C
Humedad: 81%
Barómetro: 1039 hPa
Clouds: Cubierto
Visibility: 10 km
Cloud details: Cubierto 610 m
2023/02/05 11:00 LEVT 051100Z 02008KT 350V050 9999 OVC020 06/03 Q1039
 
LEBB - Bilbao/Sondica, Spain
Distance from station: NNO 235km
Actualización: Sun, 05-Feb-2023 12:00pm CET
Muy nuboso
Muy nuboso
 Viento del varies
Viento: varies 2 km/h
Temperatura: 9°C
Rocío: 7°C
Humedad: 87%
Barómetro: 1041 hPa
Clouds: Muy nuboso
Visibility: 10 km
Cloud details: Parcialmente nuboso 792 m
Muy nuboso 1280 m
2023/02/05 11:00 LEBB 051100Z VRB01KT 9999 SCT026 BKN042 09/07 Q1041 NOSIG
LESO - San Sebastian/Fu, Spain
Distance from station: N 231km
Actualización: Sun, 05-Feb-2023 12:00pm CET
Muy nuboso
Muy nuboso
 Viento del calm
Viento: Calma
Temperatura: 9°C
Rocío: 6°C
Humedad: 82%
Barómetro: 1041 hPa
Clouds: Muy nuboso
Visibility: 10 km
Cloud details: Few Clouds 518 m
Muy nuboso 1219 m
2023/02/05 11:00 LESO 051100Z 00000KT 9999 FEW017 BKN040 09/06 Q1041
 
LEVD - Valladolid(Mil/C, Spain
Distance from station: ONO 239km
Actualización: Sun, 05-Feb-2023 12:00pm CET
Despejado
Despejado
 Viento del ENE
Viento: ENE 39 km/h
Temperatura: 7°C
Sensación frio: 2°C
Rocío: 1°C
Humedad: 66%
Barómetro: 1034 hPa
Resumen: Despejado
Visibility: greater than 10 km
2023/02/05 11:00 LEVD 051100Z 07021KT CAVOK 07/01 Q1034
LESA - Salamanca (civ/M, Spain
Distance from station: ONO 349km
Actualización: Sun, 05-Feb-2023 12:00pm CET
Few Clouds
Few Clouds
 Viento del ENE
Viento: ENE 19 km/h
Temperatura: 5°C
Sensación frio: 1°C
Rocío: 1°C
Humedad: 76%
Barómetro: 1034 hPa
Clouds: Few Clouds
Visibility: 10 km
Cloud details: Few Clouds 549 m
2023/02/05 11:00 LESA 051100Z 07010KT 9999 FEW018 05/01 Q1034
 
LEXJ - Santander/Paraya, Spain
Distance from station: NNO 247km
Actualización: Sun, 05-Feb-2023 12:00pm CET
Muy nuboso
Muy nuboso
 Viento del varies
Viento: varies 2 km/h
Temperatura: 10°C
Rocío: 6°C
Humedad: 76%
Barómetro: 1041 hPa
Clouds: Muy nuboso
Visibility: 10 km
Cloud details: Few Clouds 975 m
Muy nuboso 1494 m
2023/02/05 11:00 LEXJ 051100Z VRB01KT 9999 FEW032 BKN049 10/06 Q1041
LEAS - Asturias/Aviles, Spain
Distance from station: NO 214km
Actualización: Sun, 05-Feb-2023 12:00pm CET
Cubierto
Cubierto
 Viento del ESE
Viento: ESE 15 km/h
Temperatura: 10°C
Sensación frio: 8°C
Rocío: 6°C
Humedad: 76%
Barómetro: 1039 hPa
Clouds: Cubierto
Visibility: 10 km
Cloud details: Cubierto 1097 m
2023/02/05 11:00 LEAS 051100Z 12008KT 080V160 9999 OVC036 10/06 Q1039 NOSIG
 
LECO - La Coruna/Alvedr, Spain
Distance from station: ONO 222km
Actualización: Sun, 05-Feb-2023 12:00pm CET
Despejado
Despejado
 Viento del calm
Viento: Calma
Temperatura: 11°C
Rocío: 4°C
Humedad: 62%
Barómetro: 1036 hPa
Resumen: Despejado
Visibility: greater than 10 km
2023/02/05 11:00 LECO 051100Z 00000KT CAVOK 11/04 Q1036 NOSIG
LEVX - Vigo/Peinador, Spain
Distance from station: O 214km
Actualización: Sun, 05-Feb-2023 12:00pm CET
Despejado
Despejado
 Viento del SSO
Viento: SSO 11 km/h
Temperatura: 8°C
Sensación frio: 6°C
Rocío: 3°C
Humedad: 71%
Barómetro: 1032 hPa
Resumen: Despejado
Visibility: greater than 10 km
2023/02/05 11:00 LEVX 051100Z 20006KT 120V250 CAVOK 08/03 Q1032 NOSIG